Overview Statistics Trail Chart Weather Telemetry Raw packets
 

This is the latest recevied weather packets stored in our database for station/object MeshWX-1. If no packets are shown the sender has not sent any weather packets the latest 10 day(s).

<< 18 19 20 21 22 23 24 >>
Time Temp. Humidity Pressure Rain* Wind** Luminosity Snow
1788171068 35.56° C 29% 998.4 hPa - - - -
1788170284 35.56° C 29% 998.4 hPa - - - -
1788170159 35.56° C 29% 998.4 hPa - - - -
1788168848 34.44° C 30% 998.8 hPa - - - -
1788167939 34.44° C 30% 998.8 hPa - - - -
1788166687 35° C 32% 999.2 hPa - - - -
1788165890 35° C 32% 999.2 hPa - - - -
1788165814 35° C 32% 999.2 hPa - - - -
1788164527 33.33° C 35% 999.5 hPa - - - -
1788163763 33.33° C 35% 999.5 hPa - - - -
1788162427 33.33° C 38% 999.6 hPa - - - -
1788161782 33.33° C 38% 999.6 hPa - - - -
1788161694 33.33° C 38% 999.6 hPa - - - -
1788160326 32.78° C 41% 999.6 hPa - - - -
1788159606 32.78° C 41% 999.6 hPa - - - -
1788158166 27.78° C 51% 999.6 hPa - - - -
1788157641 27.78° C 51% 999.6 hPa - - - -
1788157500 27.78° C 51% 999.6 hPa - - - -
1788156066 25° C 57% 999.8 hPa - - - -
1788155466 25° C 57% 999.8 hPa - - - -
1788154089 22.78° C 65% 999.8 hPa - - - -
1788153572 22.78° C 65% 999.8 hPa - - - -
1788153504 22.78° C 65% 999.8 hPa - - - -
1788152046 19.44° C 77% 999.7 hPa - - - -
1788151452 19.44° C 77% 999.7 hPa - - - -

* Rain since midnight (hover to see other rain measurements)
** Current wind speed in m/s (hover to see current wind gust speed)